createdAt,value
2023-01-07T00:01:35.488Z,88.56
2023-01-07T00:04:17.120Z,88.50
2023-01-07T00:06:55.245Z,88.48
2023-01-07T00:09:31.660Z,88.43
2023-01-07T00:12:08.688Z,88.44
2023-01-07T00:14:44.959Z,88.38
2023-01-07T00:17:21.164Z,88.41
2023-01-07T00:19:57.588Z,88.37
2023-01-07T00:22:33.979Z,88.38
2023-01-07T00:25:11.915Z,88.41
2023-01-07T00:27:48.364Z,88.46
2023-01-07T00:30:24.908Z,88.47
2023-01-07T00:33:05.256Z,88.40
2023-01-07T00:35:44.911Z,88.36
2023-01-07T00:38:21.260Z,88.32
2023-01-07T00:40:57.622Z,88.30
2023-01-07T00:43:33.988Z,88.31
2023-01-07T00:46:13.358Z,88.23
2023-01-07T00:48:49.903Z,88.18
2023-01-07T00:51:26.488Z,88.15
2023-01-07T00:54:02.793Z,88.10
2023-01-07T00:56:39.470Z,88.10
2023-01-07T00:59:16.276Z,88.10
2023-01-07T01:01:52.862Z,88.09
2023-01-07T01:04:29.323Z,87.96
2023-01-07T01:07:06.608Z,88.03
2023-01-07T01:09:42.874Z,87.99
2023-01-07T01:12:19.136Z,87.97
2023-01-07T01:14:55.827Z,87.99
2023-01-07T01:17:33.020Z,87.97
2023-01-07T01:20:15.391Z,87.92
2023-01-07T01:22:52.169Z,87.96
2023-01-07T01:25:28.551Z,88.00
2023-01-07T01:28:05.007Z,88.01
2023-01-07T01:30:41.367Z,88.04
2023-01-07T01:33:18.248Z,87.98
2023-01-07T01:35:55.200Z,87.92
2023-01-07T01:38:32.730Z,87.84
2023-01-07T01:41:10.288Z,87.76
2023-01-07T01:43:49.547Z,87.61
2023-01-07T01:46:38.407Z,87.61
2023-01-07T01:49:27.929Z,87.60
2023-01-07T01:52:11.057Z,87.50
2023-01-07T01:54:53.681Z,87.49
2023-01-07T01:57:36.132Z,87.58
2023-01-07T02:00:16.630Z,87.70
2023-01-07T02:03:00.561Z,87.94
2023-01-07T02:05:42.798Z,88.12
2023-01-07T02:08:22.226Z,88.18
2023-01-07T02:11:23.183Z,88.10
2023-01-07T02:14:32.458Z,87.86
2023-01-07T02:17:28.212Z,87.55
2023-01-07T02:20:47.667Z,87.35
2023-01-07T02:24:37.981Z,87.16
2023-01-07T02:27:34.919Z,87.15
2023-01-07T02:31:03.596Z,87.23
2023-01-07T02:34:03.947Z,87.24
2023-01-07T02:37:07.025Z,87.19
2023-01-07T02:40:03.442Z,87.30
2023-01-07T02:42:56.069Z,87.40
2023-01-07T02:45:39.680Z,87.51
2023-01-07T02:48:20.377Z,87.64
2023-01-07T02:50:56.616Z,87.80
2023-01-07T02:53:34.407Z,87.87
2023-01-07T02:56:34.410Z,87.90
2023-01-07T02:59:59.083Z,87.81
2023-01-07T03:03:20.548Z,87.83
2023-01-07T03:06:24.227Z,87.96
2023-01-07T03:09:16.796Z,88.05
2023-01-07T03:12:06.803Z,88.13
2023-01-07T03:14:51.865Z,88.19
2023-01-07T03:17:36.678Z,88.26
2023-01-07T03:20:17.310Z,88.22
2023-01-07T03:22:56.465Z,88.19
2023-01-07T03:25:36.465Z,88.20
2023-01-07T03:28:17.285Z,88.20
2023-01-07T03:30:57.345Z,88.20
2023-01-07T03:33:42.721Z,88.14
2023-01-07T03:36:25.219Z,88.09
2023-01-07T03:39:05.793Z,87.98
2023-01-07T03:42:00.770Z,87.93
2023-01-07T03:44:37.891Z,87.90
2023-01-07T03:47:15.948Z,87.85
2023-01-07T03:49:52.551Z,87.78
2023-01-07T03:52:28.948Z,87.71
2023-01-07T03:55:07.117Z,87.64
2023-01-07T03:57:44.026Z,87.54
2023-01-07T04:00:22.229Z,87.54
2023-01-07T04:03:02.290Z,87.45
2023-01-07T04:05:45.147Z,87.45
2023-01-07T04:08:22.127Z,87.33
2023-01-07T04:10:58.950Z,87.19
2023-01-07T04:13:36.737Z,87.20
2023-01-07T04:16:14.030Z,87.20
2023-01-07T04:18:50.770Z,87.16
2023-01-07T04:21:27.054Z,87.10
2023-01-07T04:24:03.600Z,87.00
2023-01-07T04:26:40.121Z,86.88
2023-01-07T04:29:20.758Z,86.80
2023-01-07T04:31:59.256Z,86.87
2023-01-07T04:34:35.581Z,86.86
2023-01-07T04:37:12.897Z,86.81
2023-01-07T04:39:49.380Z,86.86
2023-01-07T04:42:26.000Z,87.03
2023-01-07T04:45:02.917Z,87.05
2023-01-07T04:47:39.242Z,87.11
2023-01-07T04:50:17.047Z,87.15
2023-01-07T04:52:53.822Z,87.05
2023-01-07T04:55:31.123Z,86.88
2023-01-07T04:58:07.464Z,86.83
2023-01-07T05:00:44.742Z,86.94
2023-01-07T05:03:21.459Z,87.36
2023-01-07T05:05:59.064Z,87.52
2023-01-07T05:08:36.063Z,87.22
2023-01-07T05:11:14.083Z,87.20
2023-01-07T05:13:52.370Z,87.30
2023-01-07T05:16:29.007Z,87.29
2023-01-07T05:19:07.787Z,87.31
2023-01-07T05:21:46.882Z,87.23
2023-01-07T05:24:23.487Z,87.14
2023-01-07T05:27:01.250Z,87.14
2023-01-07T05:29:37.726Z,87.27
2023-01-07T05:32:14.123Z,87.37
2023-01-07T05:34:50.828Z,87.54
2023-01-07T05:37:27.346Z,87.77
2023-01-07T05:40:05.490Z,87.90
2023-01-07T05:42:41.791Z,87.99
2023-01-07T05:45:19.790Z,88.09
2023-01-07T05:47:56.119Z,88.24
2023-01-07T05:50:32.442Z,88.36
2023-01-07T05:53:10.033Z,88.40
2023-01-07T05:55:46.293Z,88.34
2023-01-07T05:58:22.559Z,88.56
2023-01-07T06:00:59.221Z,88.59
2023-01-07T06:03:35.649Z,88.56
2023-01-07T06:06:12.369Z,88.53
2023-01-07T06:08:48.734Z,88.56
2023-01-07T06:11:24.964Z,88.54
2023-01-07T06:14:01.224Z,88.63
2023-01-07T06:16:37.480Z,88.61
2023-01-07T06:19:15.536Z,88.60
2023-01-07T06:21:52.020Z,88.64
2023-01-07T06:24:28.363Z,88.60
2023-01-07T06:27:04.876Z,88.61
2023-01-07T06:29:41.198Z,88.51
2023-01-07T06:32:17.462Z,88.54
2023-01-07T06:34:54.032Z,88.66
2023-01-07T06:37:30.298Z,88.65
2023-01-07T06:40:08.756Z,88.57
2023-01-07T06:42:44.970Z,88.60
2023-01-07T06:45:21.694Z,88.68
2023-01-07T06:47:58.580Z,88.51
2023-01-07T06:50:35.503Z,88.56
2023-01-07T06:53:11.828Z,88.71
2023-01-07T06:55:53.491Z,88.80
2023-01-07T06:58:29.697Z,88.97
2023-01-07T07:01:11.886Z,89.11
2023-01-07T07:03:48.181Z,89.16
2023-01-07T07:06:24.556Z,89.19
2023-01-07T07:09:00.814Z,89.23
2023-01-07T07:11:38.877Z,89.29
2023-01-07T07:14:15.344Z,89.29
2023-01-07T07:17:06.723Z,89.36
2023-01-07T07:20:04.838Z,89.44
2023-01-07T07:22:52.740Z,89.58
2023-01-07T07:25:36.786Z,89.47
2023-01-07T07:28:13.598Z,89.41
2023-01-07T07:30:49.934Z,89.47
2023-01-07T07:33:26.335Z,89.55
2023-01-07T07:36:02.871Z,89.71
2023-01-07T07:38:39.285Z,89.77
2023-01-07T07:41:15.490Z,89.80
2023-01-07T07:43:52.040Z,89.77
2023-01-07T07:46:28.624Z,89.79
2023-01-07T07:49:06.271Z,89.81
2023-01-07T07:51:42.744Z,89.79
2023-01-07T07:54:19.337Z,89.75
2023-01-07T07:56:56.237Z,89.70
2023-01-07T07:59:32.527Z,89.70
2023-01-07T08:02:10.217Z,89.70
2023-01-07T08:04:46.922Z,89.71
2023-01-07T08:07:32.506Z,89.70
2023-01-07T08:10:12.613Z,89.65
2023-01-07T08:12:49.741Z,89.71
2023-01-07T08:15:26.256Z,89.78
2023-01-07T08:18:09.142Z,89.77
2023-01-07T08:20:45.735Z,89.63
2023-01-07T08:23:22.255Z,89.66
2023-01-07T08:26:03.008Z,89.53
2023-01-07T08:28:40.168Z,89.39
2023-01-07T08:31:16.802Z,89.26
2023-01-07T08:33:53.106Z,89.18
2023-01-07T08:36:29.524Z,89.06
2023-01-07T08:39:05.980Z,89.10
2023-01-07T08:41:42.346Z,89.00
2023-01-07T08:44:18.670Z,88.85
2023-01-07T08:46:56.726Z,88.63
2023-01-07T08:49:32.994Z,88.49
2023-01-07T08:52:09.771Z,88.26
2023-01-07T08:54:48.045Z,88.03
2023-01-07T08:57:25.049Z,87.99
2023-01-07T09:00:01.382Z,87.97
2023-01-07T09:02:37.884Z,87.57
2023-01-07T09:05:15.575Z,87.54
2023-01-07T09:07:54.794Z,87.55
2023-01-07T09:10:31.720Z,87.47
2023-01-07T09:13:08.351Z,87.43
2023-01-07T09:15:44.647Z,87.46
2023-01-07T09:18:21.086Z,87.36
2023-01-07T09:20:57.425Z,87.19
2023-01-07T09:23:33.818Z,87.20
2023-01-07T09:26:10.651Z,86.98
2023-01-07T09:28:46.959Z,86.57
2023-01-07T09:31:24.168Z,86.47
2023-01-07T09:34:01.275Z,85.99
2023-01-07T09:36:37.701Z,85.87
2023-01-07T09:39:16.861Z,85.63
2023-01-07T09:42:05.589Z,85.39
2023-01-07T09:45:05.195Z,85.19
2023-01-07T09:47:48.039Z,84.38
2023-01-07T09:50:39.601Z,83.95
2023-01-07T09:53:23.851Z,84.09
2023-01-07T09:56:10.599Z,83.92
2023-01-07T09:58:51.224Z,83.99
2023-01-07T10:01:40.556Z,83.65
2023-01-07T10:04:37.693Z,83.49
2023-01-07T10:07:35.725Z,83.55
2023-01-07T10:10:25.541Z,83.55
2023-01-07T10:13:23.947Z,83.33
2023-01-07T10:16:12.214Z,82.90
2023-01-07T10:19:06.777Z,82.77
2023-01-07T10:21:53.137Z,82.58
2023-01-07T10:24:33.324Z,82.68
2023-01-07T10:27:17.381Z,82.19
2023-01-07T10:30:00.174Z,81.96
2023-01-07T10:32:39.058Z,81.74
2023-01-07T10:35:25.961Z,81.22
2023-01-07T10:38:08.059Z,81.20
2023-01-07T10:40:50.911Z,80.99
2023-01-07T10:43:59.970Z,80.94
2023-01-07T10:46:55.045Z,80.88
2023-01-07T10:50:06.265Z,80.87
2023-01-07T10:53:01.228Z,80.51
2023-01-07T10:55:54.613Z,80.27
2023-01-07T10:58:35.916Z,80.01
2023-01-07T11:01:19.894Z,79.80
2023-01-07T11:03:59.941Z,79.38
2023-01-07T11:06:49.048Z,79.13
2023-01-07T11:09:32.469Z,79.10
2023-01-07T11:12:34.037Z,78.55
2023-01-07T11:15:20.985Z,78.50
2023-01-07T11:18:03.734Z,78.05
2023-01-07T11:20:53.912Z,77.96
2023-01-07T11:23:42.770Z,77.58
2023-01-07T11:26:33.362Z,77.04
2023-01-07T11:29:27.019Z,76.82
2023-01-07T11:32:05.749Z,76.69
2023-01-07T11:34:59.189Z,76.59
2023-01-07T11:37:43.353Z,76.61
2023-01-07T11:40:31.344Z,76.06
2023-01-07T11:43:25.690Z,75.94
2023-01-07T11:46:19.732Z,75.79
2023-01-07T11:49:01.141Z,75.67
2023-01-07T11:51:46.266Z,75.77
2023-01-07T11:54:29.330Z,75.53
2023-01-07T11:57:26.588Z,75.27
2023-01-07T12:00:20.978Z,74.96
2023-01-07T12:03:14.725Z,74.77
2023-01-07T12:05:59.040Z,74.59
2023-01-07T12:08:36.001Z,74.75
2023-01-07T12:11:14.793Z,74.73
2023-01-07T12:13:55.449Z,74.71
2023-01-07T12:16:33.524Z,74.82
2023-01-07T12:19:33.642Z,75.00
2023-01-07T12:22:34.937Z,75.59
2023-01-07T12:25:39.860Z,76.48
2023-01-07T12:28:21.083Z,76.71
2023-01-07T12:31:28.371Z,76.69
2023-01-07T12:34:31.425Z,76.55
2023-01-07T12:37:20.377Z,76.22
2023-01-07T12:40:12.280Z,75.84
2023-01-07T12:42:56.080Z,75.49
2023-01-07T12:45:45.495Z,74.98
2023-01-07T12:48:37.450Z,74.76
2023-01-07T12:51:25.138Z,75.00
2023-01-07T12:54:12.820Z,74.16
2023-01-07T12:56:59.937Z,73.88
2023-01-07T12:59:46.337Z,74.48
2023-01-07T13:02:39.520Z,74.35
2023-01-07T13:05:25.066Z,74.22
2023-01-07T13:08:13.899Z,73.96
2023-01-07T13:10:58.704Z,73.51
2023-01-07T13:13:45.588Z,72.79
2023-01-07T13:16:21.940Z,73.65
2023-01-07T13:18:58.443Z,73.93
2023-01-07T13:21:35.467Z,74.13
2023-01-07T13:24:54.847Z,74.17
2023-01-07T13:27:59.419Z,74.15
2023-01-07T13:30:56.723Z,74.35
2023-01-07T13:33:45.128Z,74.45
2023-01-07T13:36:41.874Z,74.34
2023-01-07T13:39:58.498Z,74.26
2023-01-07T13:42:50.492Z,74.41
2023-01-07T13:45:32.214Z,74.52
2023-01-07T13:48:21.868Z,74.66
2023-01-07T13:51:08.676Z,74.72
2023-01-07T13:53:52.036Z,74.82
2023-01-07T13:56:43.321Z,74.81
2023-01-07T13:59:53.150Z,75.05
2023-01-07T14:02:31.285Z,75.18
2023-01-07T14:05:29.305Z,75.28
2023-01-07T14:08:07.803Z,75.29
2023-01-07T14:10:54.824Z,75.29
2023-01-07T14:13:43.315Z,75.43
2023-01-07T14:16:28.009Z,75.60
2023-01-07T14:19:25.059Z,75.91
2023-01-07T14:22:27.837Z,76.10
2023-01-07T14:25:31.611Z,76.29
2023-01-07T14:28:42.361Z,76.50
2023-01-07T14:31:30.044Z,76.72
2023-01-07T14:34:17.509Z,76.98
2023-01-07T14:37:30.323Z,77.20
2023-01-07T14:41:00.217Z,77.64
2023-01-07T14:44:32.220Z,78.29
2023-01-07T14:47:13.905Z,78.55
2023-01-07T14:50:23.537Z,78.93
2023-01-07T14:53:57.406Z,79.11
2023-01-07T14:56:55.904Z,79.27
2023-01-07T15:00:15.194Z,79.50
2023-01-07T15:03:39.303Z,79.87
2023-01-07T15:06:42.156Z,80.16
2023-01-07T15:09:44.814Z,80.32
2023-01-07T15:12:48.049Z,80.55
2023-01-07T15:15:47.941Z,80.90
2023-01-07T15:18:24.898Z,81.25
2023-01-07T15:21:22.117Z,81.45
2023-01-07T15:24:15.111Z,81.64
2023-01-07T15:27:02.277Z,81.70
2023-01-07T15:29:57.421Z,81.64
2023-01-07T15:32:51.444Z,81.75
2023-01-07T15:35:42.853Z,82.35
2023-01-07T15:38:38.857Z,82.79
2023-01-07T15:41:34.780Z,82.76
2023-01-07T15:44:21.824Z,82.82
2023-01-07T15:46:58.549Z,83.11
2023-01-07T15:49:36.254Z,83.31
2023-01-07T15:52:29.208Z,83.52
2023-01-07T15:55:27.981Z,83.41
2023-01-07T15:58:16.433Z,83.32
2023-01-07T16:00:59.424Z,83.72
2023-01-07T16:03:40.667Z,84.15
2023-01-07T16:06:38.779Z,84.28
2023-01-07T16:09:24.481Z,84.54
2023-01-07T16:12:00.925Z,84.64
2023-01-07T16:14:42.170Z,84.70
2023-01-07T16:17:21.743Z,84.71
2023-01-07T16:20:23.719Z,84.80
2023-01-07T16:23:22.838Z,84.80
2023-01-07T16:26:06.409Z,84.79
2023-01-07T16:28:50.660Z,84.79
2023-01-07T16:31:32.516Z,84.88
2023-01-07T16:34:54.057Z,84.79
2023-01-07T16:37:32.867Z,84.80
2023-01-07T16:40:21.913Z,84.90
2023-01-07T16:42:58.999Z,85.17
2023-01-07T16:45:38.287Z,85.43
2023-01-07T16:48:24.024Z,85.48
2023-01-07T16:51:01.642Z,86.05
2023-01-07T16:53:38.906Z,86.45
2023-01-07T16:56:21.310Z,86.49
2023-01-07T16:58:58.455Z,86.71
2023-01-07T17:01:38.308Z,86.89
2023-01-07T17:04:25.163Z,86.83
2023-01-07T17:07:04.006Z,86.96
2023-01-07T17:09:42.535Z,86.93
2023-01-07T17:12:38.810Z,87.09
2023-01-07T17:15:43.394Z,87.78
2023-01-07T17:18:34.797Z,87.99
2023-01-07T17:21:40.434Z,88.32
2023-01-07T17:24:52.341Z,88.79
2023-01-07T17:27:35.028Z,88.84
2023-01-07T17:30:20.973Z,88.74
2023-01-07T17:32:57.247Z,88.70
2023-01-07T17:35:33.571Z,88.74
2023-01-07T17:38:16.796Z,88.70
2023-01-07T17:40:54.708Z,88.66
2023-01-07T17:43:38.052Z,88.73
2023-01-07T17:46:16.221Z,88.71
2023-01-07T17:48:52.664Z,88.69
2023-01-07T17:51:30.686Z,88.58
2023-01-07T17:54:07.924Z,88.41
2023-01-07T17:56:44.238Z,88.41
2023-01-07T17:59:24.651Z,88.32
2023-01-07T18:02:01.586Z,88.31
2023-01-07T18:04:38.229Z,88.38
2023-01-07T18:07:18.551Z,88.39
2023-01-07T18:09:55.069Z,88.35
2023-01-07T18:12:31.842Z,88.34
2023-01-07T18:15:18.950Z,88.52
2023-01-07T18:17:55.835Z,88.50
2023-01-07T18:20:32.288Z,88.48
2023-01-07T18:23:12.638Z,88.36
2023-01-07T18:25:50.419Z,88.41
2023-01-07T18:28:27.118Z,88.53
2023-01-07T18:31:03.499Z,88.47
2023-01-07T18:33:40.460Z,88.38
2023-01-07T18:36:17.878Z,88.26
2023-01-07T18:38:54.520Z,88.29
2023-01-07T18:41:30.898Z,88.35
2023-01-07T18:44:07.573Z,88.23
2023-01-07T18:46:44.132Z,88.00
2023-01-07T18:49:20.839Z,87.99
2023-01-07T18:51:57.105Z,88.17
2023-01-07T18:54:33.821Z,88.20
2023-01-07T18:57:10.526Z,88.29
2023-01-07T18:59:47.290Z,88.32
2023-01-07T19:02:25.501Z,88.49
2023-01-07T19:05:02.110Z,88.54
2023-01-07T19:07:38.668Z,88.51
2023-01-07T19:10:16.121Z,88.72
2023-01-07T19:12:53.196Z,88.88
2023-01-07T19:15:30.882Z,88.98
2023-01-07T19:18:08.111Z,88.95
2023-01-07T19:20:45.585Z,88.90
2023-01-07T19:23:22.671Z,88.90
2023-01-07T19:26:08.835Z,88.95
2023-01-07T19:28:45.553Z,89.10
2023-01-07T19:31:22.097Z,89.10
2023-01-07T19:33:58.757Z,89.08
2023-01-07T19:36:36.172Z,89.09
2023-01-07T19:39:15.921Z,89.07
2023-01-07T19:41:53.186Z,89.03
2023-01-07T19:44:29.880Z,89.00
2023-01-07T19:47:06.747Z,89.00
2023-01-07T19:49:45.318Z,88.98
2023-01-07T19:52:21.841Z,88.98
2023-01-07T19:55:02.158Z,88.92
2023-01-07T19:57:39.066Z,88.81
2023-01-07T20:00:18.140Z,88.86
2023-01-07T20:02:54.612Z,88.93
2023-01-07T20:05:31.258Z,88.85
2023-01-07T20:08:08.487Z,88.85
2023-01-07T20:10:44.759Z,88.85
2023-01-07T20:13:21.157Z,88.97
2023-01-07T20:16:04.015Z,88.98
2023-01-07T20:18:47.244Z,88.92
2023-01-07T20:21:27.271Z,88.83
2023-01-07T20:24:04.521Z,88.81
2023-01-07T20:26:43.369Z,88.80
2023-01-07T20:29:19.814Z,88.85
2023-01-07T20:31:56.292Z,88.88
2023-01-07T20:34:33.276Z,88.82
2023-01-07T20:37:10.078Z,88.74
2023-01-07T20:39:46.817Z,88.72
2023-01-07T20:42:23.243Z,88.69
2023-01-07T20:45:00.617Z,88.88
2023-01-07T20:47:37.408Z,89.23
2023-01-07T20:50:15.417Z,89.17
2023-01-07T20:52:51.871Z,89.07
2023-01-07T20:55:28.634Z,89.01
2023-01-07T20:58:05.199Z,89.00
2023-01-07T21:00:45.993Z,89.00
2023-01-07T21:03:22.719Z,89.14
2023-01-07T21:06:03.138Z,89.52
2023-01-07T21:08:39.749Z,89.40
2023-01-07T21:11:20.455Z,89.31
2023-01-07T21:13:57.390Z,89.36
2023-01-07T21:16:34.256Z,89.55
2023-01-07T21:19:10.722Z,89.37
2023-01-07T21:21:47.464Z,89.29
2023-01-07T21:24:24.019Z,89.23
2023-01-07T21:27:00.527Z,89.19
2023-01-07T21:29:36.945Z,89.20
2023-01-07T21:32:13.465Z,89.15
2023-01-07T21:34:49.841Z,89.08
2023-01-07T21:37:28.390Z,89.00
2023-01-07T21:40:06.885Z,88.91
2023-01-07T21:42:43.220Z,89.13
2023-01-07T21:45:20.124Z,89.22
2023-01-07T21:47:56.787Z,89.12
2023-01-07T21:50:33.103Z,89.11
2023-01-07T21:53:09.627Z,89.10
2023-01-07T21:55:46.398Z,89.14
2023-01-07T21:58:22.656Z,89.26
2023-01-07T22:00:59.094Z,89.29
2023-01-07T22:03:36.858Z,89.30
2023-01-07T22:06:24.249Z,89.22
2023-01-07T22:09:05.413Z,89.12
2023-01-07T22:11:42.512Z,89.10
2023-01-07T22:14:23.141Z,89.06
2023-01-07T22:16:59.537Z,88.97
2023-01-07T22:19:36.830Z,89.03
2023-01-07T22:22:13.214Z,88.95
2023-01-07T22:24:49.652Z,88.88
2023-01-07T22:27:25.933Z,88.87
2023-01-07T22:30:03.631Z,88.76
2023-01-07T22:32:40.239Z,88.60
2023-01-07T22:35:17.234Z,88.50
2023-01-07T22:37:57.432Z,88.55
2023-01-07T22:40:37.932Z,88.62
2023-01-07T22:43:20.564Z,88.67
2023-01-07T22:46:03.014Z,88.47
2023-01-07T22:48:41.102Z,88.61
2023-01-07T22:51:25.115Z,88.44
2023-01-07T22:54:03.970Z,88.31
2023-01-07T22:56:41.213Z,88.50
2023-01-07T22:59:17.939Z,88.70
2023-01-07T23:01:54.600Z,88.80
2023-01-07T23:04:30.936Z,88.71
2023-01-07T23:07:07.476Z,88.77
2023-01-07T23:09:45.127Z,88.98
2023-01-07T23:12:21.543Z,89.00
2023-01-07T23:14:58.059Z,89.09
2023-01-07T23:17:34.643Z,89.20
2023-01-07T23:20:13.125Z,89.26
2023-01-07T23:22:49.558Z,89.68
2023-01-07T23:25:26.035Z,89.93
2023-01-07T23:28:02.598Z,90.04
2023-01-07T23:30:39.077Z,90.12
2023-01-07T23:33:15.775Z,90.18
2023-01-07T23:35:53.435Z,90.21
2023-01-07T23:38:30.578Z,90.13
2023-01-07T23:41:10.523Z,90.22
2023-01-07T23:43:46.892Z,90.22
2023-01-07T23:46:23.525Z,90.21
2023-01-07T23:49:00.657Z,90.21
2023-01-07T23:51:37.293Z,90.27
2023-01-07T23:54:14.267Z,90.30
2023-01-07T23:56:50.787Z,90.30
2023-01-07T23:59:28.208Z,90.26
